createdAt,value
2023-04-24T00:02:19.879Z,7.00
2023-04-24T00:04:46.475Z,8.40
2023-04-24T00:07:13.941Z,8.97
2023-04-24T00:09:40.566Z,7.40
2023-04-24T00:12:07.291Z,7.77
2023-04-24T00:14:33.737Z,7.80
2023-04-24T00:17:00.274Z,8.10
2023-04-24T00:19:26.839Z,7.63
2023-04-24T00:21:53.424Z,7.87
2023-04-24T00:24:19.928Z,9.07
2023-04-24T00:26:46.493Z,10.00
2023-04-24T00:29:12.985Z,10.87
2023-04-24T00:31:39.504Z,8.80
2023-04-24T00:34:06.520Z,9.77
2023-04-24T00:36:33.463Z,7.30
2023-04-24T00:38:59.957Z,10.80
2023-04-24T00:41:26.615Z,7.97
2023-04-24T00:43:53.639Z,9.70
2023-04-24T00:46:20.697Z,7.73
2023-04-24T00:48:47.428Z,7.77
2023-04-24T00:51:14.140Z,7.93
2023-04-24T00:53:40.602Z,8.27
2023-04-24T00:56:07.311Z,8.80
2023-04-24T00:58:33.903Z,9.87
2023-04-24T01:01:01.991Z,7.80
2023-04-24T01:03:32.663Z,7.57
2023-04-24T01:05:59.569Z,8.40
2023-04-24T01:08:29.130Z,10.93
2023-04-24T01:10:57.736Z,8.07
2023-04-24T01:13:24.402Z,7.90
2023-04-24T01:15:50.920Z,8.40
2023-04-24T01:18:17.452Z,12.93
2023-04-24T01:20:46.069Z,7.80
2023-04-24T01:23:12.665Z,8.63
2023-04-24T01:25:39.289Z,8.47
2023-04-24T01:28:05.834Z,12.10
2023-04-24T01:30:33.101Z,9.57
2023-04-24T01:32:59.905Z,9.67
2023-04-24T01:35:26.980Z,13.23
2023-04-24T01:37:53.652Z,16.10
2023-04-24T01:40:20.146Z,14.63
2023-04-24T01:42:46.839Z,13.00
2023-04-24T01:45:14.129Z,12.83
2023-04-24T01:47:40.807Z,12.13
2023-04-24T01:50:08.212Z,12.87
2023-04-24T01:52:36.183Z,12.50
2023-04-24T01:55:05.059Z,12.60
2023-04-24T01:57:35.466Z,12.83
2023-04-24T02:00:02.229Z,12.97
2023-04-24T02:02:29.767Z,11.43
2023-04-24T02:04:56.804Z,14.13
2023-04-24T02:07:23.710Z,12.30
2023-04-24T02:09:50.221Z,14.70
2023-04-24T02:12:18.393Z,14.63
2023-04-24T02:14:45.427Z,13.10
2023-04-24T02:17:14.158Z,15.23
2023-04-24T02:19:40.836Z,16.73
2023-04-24T02:22:07.450Z,15.60
2023-04-24T02:24:33.913Z,12.40
2023-04-24T02:27:01.151Z,12.23
2023-04-24T02:29:27.603Z,14.60
2023-04-24T02:31:54.038Z,18.83
2023-04-24T02:34:20.488Z,13.30
2023-04-24T02:36:46.875Z,15.80
2023-04-24T02:39:14.467Z,15.17
2023-04-24T02:41:41.037Z,17.40
2023-04-24T02:44:07.470Z,16.10
2023-04-24T02:46:33.942Z,17.70
2023-04-24T02:49:00.412Z,15.50
2023-04-24T02:51:27.749Z,14.50
2023-04-24T02:53:54.172Z,15.97
2023-04-24T02:56:20.599Z,15.27
2023-04-24T02:58:47.103Z,22.23
2023-04-24T03:01:13.588Z,20.27
2023-04-24T03:03:40.641Z,17.37
2023-04-24T03:06:08.994Z,17.43
2023-04-24T03:08:35.822Z,17.33
2023-04-24T03:11:02.214Z,17.00
2023-04-24T03:13:28.634Z,18.33
2023-04-24T03:15:55.175Z,18.10
2023-04-24T03:18:21.804Z,19.27
2023-04-24T03:20:48.542Z,21.17
2023-04-24T03:23:15.314Z,19.13
2023-04-24T03:25:43.681Z,16.43
2023-04-24T03:28:10.195Z,19.30
2023-04-24T03:30:36.647Z,17.17
2023-04-24T03:33:03.271Z,17.50
2023-04-24T03:35:29.836Z,17.33
2023-04-24T03:37:56.327Z,17.67
2023-04-24T03:40:22.823Z,16.53
2023-04-24T03:42:49.282Z,17.63
2023-04-24T03:45:15.985Z,17.30
2023-04-24T03:47:42.466Z,15.73
2023-04-24T03:50:11.174Z,15.37
2023-04-24T03:52:38.951Z,18.33
2023-04-24T03:55:05.879Z,16.43
2023-04-24T03:57:32.322Z,16.93
2023-04-24T03:59:58.771Z,16.83
2023-04-24T04:02:25.483Z,18.97
2023-04-24T04:04:52.230Z,16.07
2023-04-24T04:07:18.764Z,19.50
2023-04-24T04:09:45.386Z,19.13
2023-04-24T04:12:11.911Z,15.80
2023-04-24T04:14:39.209Z,21.37
2023-04-24T04:17:05.724Z,19.10
2023-04-24T04:19:32.254Z,20.70
2023-04-24T04:21:58.764Z,17.00
2023-04-24T04:24:25.426Z,18.17
2023-04-24T04:26:53.185Z,16.63
2023-04-24T04:29:19.847Z,19.67
2023-04-24T04:31:46.534Z,17.70
2023-04-24T04:34:13.685Z,17.30
2023-04-24T04:36:41.140Z,18.77
2023-04-24T04:39:07.991Z,19.73
2023-04-24T04:41:35.985Z,23.07
2023-04-24T04:44:05.453Z,15.60
2023-04-24T04:46:34.052Z,16.47
2023-04-24T04:49:02.323Z,14.73
2023-04-24T04:51:28.898Z,17.13
2023-04-24T04:53:55.345Z,20.03
2023-04-24T04:56:22.843Z,20.10
2023-04-24T04:58:49.256Z,17.43
2023-04-24T05:01:15.726Z,19.53
2023-04-24T05:03:42.462Z,18.10
2023-04-24T05:06:09.052Z,22.23
2023-04-24T05:08:35.661Z,17.37
2023-04-24T05:11:02.220Z,16.97
2023-04-24T05:13:39.179Z,17.50
2023-04-24T05:16:07.736Z,15.10
2023-04-24T05:18:34.276Z,17.33
2023-04-24T05:21:00.977Z,16.47
2023-04-24T05:23:27.462Z,18.33
2023-04-24T05:25:53.969Z,19.07
2023-04-24T05:28:20.940Z,17.77
2023-04-24T05:30:47.473Z,17.20
2023-04-24T05:33:15.075Z,14.90
2023-04-24T05:35:46.641Z,16.23
2023-04-24T05:38:13.801Z,14.63
2023-04-24T05:40:41.038Z,16.53
2023-04-24T05:43:07.464Z,14.20
2023-04-24T05:45:45.617Z,16.87
2023-04-24T05:48:12.038Z,14.60
2023-04-24T05:50:38.471Z,15.93
2023-04-24T05:53:05.464Z,14.80
2023-04-24T05:55:32.172Z,15.63
2023-04-24T05:57:58.673Z,13.70
2023-04-24T06:00:25.921Z,13.87
2023-04-24T06:02:53.874Z,18.30
2023-04-24T06:05:20.959Z,20.33
2023-04-24T06:07:47.581Z,15.97
2023-04-24T06:10:13.967Z,17.17
2023-04-24T06:12:40.649Z,15.70
2023-04-24T06:15:08.071Z,17.13
2023-04-24T06:17:34.562Z,14.97
2023-04-24T06:20:01.123Z,15.10
2023-04-24T06:22:27.778Z,15.27
2023-04-24T06:24:54.184Z,15.10
2023-04-24T06:27:20.785Z,13.20
2023-04-24T06:29:48.930Z,15.60
2023-04-24T06:32:15.404Z,13.70
2023-04-24T06:34:43.245Z,14.23
2023-04-24T06:37:09.633Z,16.57
2023-04-24T06:39:36.053Z,14.30
2023-04-24T06:42:02.606Z,17.00
2023-04-24T06:44:29.050Z,16.97
2023-04-24T06:46:55.550Z,19.03
2023-04-24T06:49:22.066Z,16.70
2023-04-24T06:51:48.503Z,11.57
2023-04-24T06:54:14.910Z,12.80
2023-04-24T06:56:42.415Z,12.87
2023-04-24T06:59:09.003Z,11.73
2023-04-24T07:01:35.559Z,13.60
2023-04-24T07:04:02.685Z,12.00
2023-04-24T07:06:31.489Z,12.77
2023-04-24T07:08:58.008Z,13.80
2023-04-24T07:11:25.044Z,13.00
2023-04-24T07:13:51.464Z,13.93
2023-04-24T07:16:18.057Z,10.40
2023-04-24T07:18:44.615Z,14.67
2023-04-24T07:21:11.056Z,10.90
2023-04-24T07:23:37.570Z,11.40
2023-04-24T07:26:04.431Z,11.10
2023-04-24T07:28:34.013Z,11.23
2023-04-24T07:31:00.927Z,10.10
2023-04-24T07:33:27.990Z,9.80
2023-04-24T07:35:54.679Z,13.80
2023-04-24T07:38:24.008Z,8.50
2023-04-24T07:40:50.540Z,8.83
2023-04-24T07:43:17.160Z,10.90
2023-04-24T07:45:43.874Z,9.03
2023-04-24T07:48:10.454Z,7.73
2023-04-24T07:50:37.704Z,10.90
2023-04-24T07:53:04.163Z,7.70
2023-04-24T07:55:30.617Z,12.60
2023-04-24T07:57:57.102Z,12.17
2023-04-24T08:00:23.608Z,7.97
2023-04-24T08:02:50.236Z,8.23
2023-04-24T08:05:17.355Z,10.50
2023-04-24T08:07:43.926Z,8.40
2023-04-24T08:10:14.349Z,8.20
2023-04-24T08:12:41.331Z,7.43
2023-04-24T08:15:08.551Z,6.57
2023-04-24T08:17:36.483Z,7.20
2023-04-24T08:20:04.832Z,7.60
2023-04-24T08:22:31.687Z,8.27
2023-04-24T08:25:00.809Z,7.77
2023-04-24T08:27:28.005Z,9.70
2023-04-24T08:29:55.594Z,8.10
2023-04-24T08:32:22.083Z,8.70
2023-04-24T08:34:49.785Z,7.50
2023-04-24T08:37:16.539Z,10.37
2023-04-24T08:39:43.330Z,8.20
2023-04-24T08:42:10.261Z,7.40
2023-04-24T08:44:37.503Z,9.27
2023-04-24T08:47:04.390Z,9.23
2023-04-24T08:49:31.480Z,12.20
2023-04-24T08:51:58.456Z,7.60
2023-04-24T08:54:26.286Z,8.40
2023-04-24T08:56:54.954Z,9.13
2023-04-24T08:59:22.960Z,10.57
2023-04-24T09:01:51.870Z,10.53
2023-04-24T09:04:21.192Z,11.33
2023-04-24T09:06:50.030Z,10.23
2023-04-24T09:09:17.757Z,10.90
2023-04-24T09:11:44.327Z,10.93
2023-04-24T09:14:11.840Z,10.33
2023-04-24T09:16:38.406Z,11.37
2023-04-24T09:19:04.962Z,12.47
2023-04-24T09:21:35.748Z,9.17
2023-04-24T09:24:06.396Z,8.73
2023-04-24T09:26:35.843Z,11.00
2023-04-24T09:29:02.453Z,9.40
2023-04-24T09:31:30.546Z,11.67
2023-04-24T09:34:08.259Z,12.00
2023-04-24T09:36:42.972Z,10.03
2023-04-24T09:39:12.111Z,9.90
2023-04-24T09:41:46.995Z,11.80
2023-04-24T09:44:17.455Z,11.13
2023-04-24T09:46:46.531Z,11.07
2023-04-24T09:49:17.626Z,11.63
2023-04-24T09:51:44.628Z,13.60
2023-04-24T09:54:19.429Z,12.00
2023-04-24T09:56:47.532Z,11.87
2023-04-24T09:59:16.076Z,15.07
2023-04-24T10:01:45.895Z,14.17
2023-04-24T10:04:24.498Z,14.37
2023-04-24T10:06:53.398Z,18.83
2023-04-24T10:09:21.923Z,14.23
2023-04-24T10:11:50.367Z,18.50
2023-04-24T10:14:19.252Z,15.10
2023-04-24T10:16:47.841Z,17.90
2023-04-24T10:19:16.156Z,20.23
2023-04-24T10:21:47.072Z,14.03
2023-04-24T10:24:15.437Z,18.37
2023-04-24T10:26:42.326Z,18.20
2023-04-24T10:29:13.442Z,21.40
2023-04-24T10:31:40.607Z,16.67
2023-04-24T10:34:07.926Z,19.23
2023-04-24T10:36:36.201Z,17.03
2023-04-24T10:39:07.711Z,19.50
2023-04-24T10:41:34.225Z,20.60
2023-04-24T10:44:07.916Z,18.50
2023-04-24T10:46:35.052Z,18.50
2023-04-24T10:49:05.018Z,18.53
2023-04-24T10:51:49.630Z,14.97
2023-04-24T10:54:28.434Z,18.83
2023-04-24T10:57:20.537Z,14.97
2023-04-24T10:59:52.561Z,13.83
2023-04-24T11:02:36.141Z,17.17
2023-04-24T11:05:05.054Z,18.20
2023-04-24T11:08:10.093Z,16.73
2023-04-24T11:10:40.423Z,21.10
2023-04-24T11:13:08.529Z,24.33
2023-04-24T11:15:35.746Z,23.23
2023-04-24T11:18:02.391Z,20.30
2023-04-24T11:20:28.971Z,24.37
2023-04-24T11:22:56.489Z,19.13
2023-04-24T11:25:23.920Z,16.83
2023-04-24T11:27:51.368Z,20.57
2023-04-24T11:30:20.317Z,18.60
2023-04-24T11:32:52.330Z,18.07
2023-04-24T11:35:25.847Z,24.20
2023-04-24T11:38:12.469Z,18.83
2023-04-24T11:40:42.881Z,18.13
2023-04-24T11:43:10.377Z,17.17
2023-04-24T11:45:36.818Z,19.93
2023-04-24T11:48:04.526Z,15.60
2023-04-24T11:50:31.393Z,15.80
2023-04-24T11:52:58.110Z,20.17
2023-04-24T11:55:28.592Z,20.53
2023-04-24T11:57:57.703Z,21.80
2023-04-24T12:00:30.395Z,19.13
2023-04-24T12:03:09.114Z,22.60
2023-04-24T12:05:36.398Z,18.63
2023-04-24T12:08:03.282Z,18.60
2023-04-24T12:10:32.831Z,18.57
2023-04-24T12:13:00.896Z,19.07
2023-04-24T12:15:28.019Z,25.00
2023-04-24T12:17:55.819Z,17.60
2023-04-24T12:20:28.257Z,19.03
2023-04-24T12:22:56.415Z,21.50
2023-04-24T12:25:25.356Z,16.27
2023-04-24T12:28:15.267Z,19.00
2023-04-24T12:30:49.753Z,20.20
2023-04-24T12:33:23.205Z,23.37
2023-04-24T12:35:54.315Z,18.90
2023-04-24T12:38:26.578Z,17.00
2023-04-24T12:41:13.989Z,13.53
2023-04-24T12:43:52.440Z,17.40
2023-04-24T12:46:20.563Z,20.33
2023-04-24T12:48:48.833Z,13.30
2023-04-24T12:51:15.391Z,11.57
2023-04-24T12:53:42.235Z,15.23
2023-04-24T12:56:08.845Z,12.00
2023-04-24T12:58:35.411Z,16.03
2023-04-24T13:01:02.156Z,14.93
2023-04-24T13:03:28.796Z,11.70
2023-04-24T13:05:55.315Z,12.00
2023-04-24T13:08:21.784Z,18.30
2023-04-24T13:10:48.342Z,10.57
2023-04-24T13:13:15.215Z,8.97
2023-04-24T13:15:41.623Z,11.33
2023-04-24T13:18:08.135Z,13.50
2023-04-24T13:20:36.449Z,10.97
2023-04-24T13:23:02.950Z,11.50
2023-04-24T13:25:30.654Z,12.10
2023-04-24T13:27:57.089Z,10.67
2023-04-24T13:30:23.541Z,10.83
2023-04-24T13:32:50.007Z,14.77
2023-04-24T13:35:16.551Z,11.17
2023-04-24T13:37:43.016Z,9.60
2023-04-24T13:40:10.126Z,9.43
2023-04-24T13:42:36.645Z,9.40
2023-04-24T13:45:17.429Z,16.47
2023-04-24T13:47:52.233Z,9.50
2023-04-24T13:50:19.278Z,15.20
2023-04-24T13:52:45.848Z,11.00
2023-04-24T13:55:12.401Z,13.23
2023-04-24T13:57:38.896Z,15.87
2023-04-24T14:00:07.236Z,13.80
2023-04-24T14:02:34.002Z,12.90
2023-04-24T14:05:00.773Z,12.67
2023-04-24T14:07:27.426Z,10.40
2023-04-24T14:09:53.860Z,13.00
2023-04-24T14:12:20.805Z,8.77
2023-04-24T14:14:48.960Z,12.10
2023-04-24T14:17:15.880Z,15.67
2023-04-24T14:19:42.344Z,9.27
2023-04-24T14:22:08.830Z,15.97
2023-04-24T14:24:35.305Z,8.63
2023-04-24T14:27:02.305Z,9.90
2023-04-24T14:29:28.841Z,8.67
2023-04-24T14:31:55.508Z,9.87
2023-04-24T14:34:22.013Z,9.30
2023-04-24T14:36:48.456Z,10.27
2023-04-24T14:39:15.025Z,12.00
2023-04-24T14:41:41.510Z,13.60
2023-04-24T14:44:07.965Z,12.80
2023-04-24T14:46:34.681Z,11.83
2023-04-24T14:49:01.368Z,9.23
2023-04-24T14:51:28.221Z,13.00
2023-04-24T14:53:54.664Z,11.57
2023-04-24T14:56:21.223Z,9.30
2023-04-24T14:58:47.725Z,10.90
2023-04-24T15:01:14.277Z,11.60
2023-04-24T15:03:41.063Z,9.40
2023-04-24T15:06:07.719Z,10.40
2023-04-24T15:08:34.197Z,10.83
2023-04-24T15:11:00.813Z,10.13
2023-04-24T15:13:27.378Z,11.83
2023-04-24T15:15:53.921Z,10.07
2023-04-24T15:18:20.355Z,8.33
2023-04-24T15:20:47.001Z,10.50
2023-04-24T15:23:13.707Z,15.20
2023-04-24T15:25:40.270Z,9.60
2023-04-24T15:28:07.150Z,9.40
2023-04-24T15:30:33.821Z,9.63
2023-04-24T15:33:02.022Z,12.93
2023-04-24T15:35:28.963Z,9.63
2023-04-24T15:37:55.865Z,8.00
2023-04-24T15:40:22.486Z,9.90
2023-04-24T15:42:48.978Z,10.67
2023-04-24T15:45:15.548Z,9.70
2023-04-24T15:47:42.087Z,11.17
2023-04-24T15:50:14.399Z,11.90
2023-04-24T15:52:41.303Z,12.63
2023-04-24T15:55:08.105Z,9.13
2023-04-24T15:57:34.576Z,9.13
2023-04-24T16:00:01.415Z,10.27
2023-04-24T16:02:28.060Z,7.87
2023-04-24T16:04:55.024Z,10.00
2023-04-24T16:07:21.756Z,13.33
2023-04-24T16:09:48.277Z,11.30
2023-04-24T16:12:14.924Z,11.67
2023-04-24T16:14:41.976Z,14.90
2023-04-24T16:17:08.618Z,10.00
2023-04-24T16:19:35.181Z,10.63
2023-04-24T16:22:03.120Z,10.30
2023-04-24T16:24:29.773Z,9.83
2023-04-24T16:26:56.633Z,13.33
2023-04-24T16:29:23.385Z,11.80
2023-04-24T16:31:49.990Z,13.37
2023-04-24T16:34:16.581Z,11.30
2023-04-24T16:36:43.253Z,9.50
2023-04-24T16:39:09.871Z,9.10
2023-04-24T16:41:36.393Z,11.13
2023-04-24T16:44:02.835Z,9.50
2023-04-24T16:46:29.305Z,12.93
2023-04-24T16:48:55.969Z,9.17
2023-04-24T16:51:22.449Z,8.77
2023-04-24T16:53:48.940Z,13.27
2023-04-24T16:56:15.759Z,17.80
2023-04-24T16:58:42.186Z,11.83
2023-04-24T17:01:08.840Z,10.23
2023-04-24T17:03:35.703Z,9.17
2023-04-24T17:06:03.014Z,13.33
2023-04-24T17:08:30.644Z,11.93
2023-04-24T17:10:57.114Z,10.60
2023-04-24T17:13:23.572Z,10.80
2023-04-24T17:15:50.054Z,11.20
2023-04-24T17:18:18.146Z,11.23
2023-04-24T17:20:44.705Z,11.17
2023-04-24T17:23:13.521Z,10.87
2023-04-24T17:25:40.149Z,11.13
2023-04-24T17:28:26.171Z,9.83
2023-04-24T17:30:54.549Z,10.40
2023-04-24T17:33:21.450Z,12.20
2023-04-24T17:35:49.029Z,8.67
2023-04-24T17:38:15.470Z,9.07
2023-04-24T17:40:41.960Z,9.13
2023-04-24T17:43:08.401Z,9.33
2023-04-24T17:45:34.947Z,8.20
2023-04-24T17:48:01.741Z,10.43
2023-04-24T17:50:28.285Z,8.87
2023-04-24T17:52:54.744Z,10.60
2023-04-24T17:55:21.557Z,10.00
2023-04-24T17:57:48.058Z,13.43
2023-04-24T18:00:15.087Z,8.73
2023-04-24T18:02:41.660Z,10.87
2023-04-24T18:05:08.280Z,16.53
2023-04-24T18:07:34.726Z,9.53
2023-04-24T18:10:01.136Z,11.80
2023-04-24T18:12:27.853Z,10.10
2023-04-24T18:15:02.975Z,10.83
2023-04-24T18:17:40.123Z,12.63
2023-04-24T18:20:07.127Z,9.37
2023-04-24T18:22:33.723Z,8.87
2023-04-24T18:25:00.240Z,14.07
2023-04-24T18:27:29.200Z,10.97
2023-04-24T18:29:55.678Z,10.13
2023-04-24T18:32:22.370Z,10.37
2023-04-24T18:34:49.065Z,11.47
2023-04-24T18:37:18.349Z,12.17
2023-04-24T18:39:44.803Z,10.50
2023-04-24T18:42:11.406Z,12.40
2023-04-24T18:44:40.975Z,11.00
2023-04-24T18:47:08.309Z,17.50
2023-04-24T18:49:34.974Z,10.10
2023-04-24T18:52:01.936Z,11.87
2023-04-24T18:54:29.740Z,10.73
2023-04-24T18:56:56.695Z,9.27
2023-04-24T18:59:23.258Z,11.30
2023-04-24T19:01:49.882Z,14.50
2023-04-24T19:04:16.491Z,13.07
2023-04-24T19:06:42.955Z,16.67
2023-04-24T19:09:09.422Z,14.20
2023-04-24T19:11:35.954Z,17.53
2023-04-24T19:14:04.289Z,11.73
2023-04-24T19:16:31.041Z,11.70
2023-04-24T19:18:57.531Z,13.90
2023-04-24T19:21:24.141Z,17.77
2023-04-24T19:23:52.430Z,12.47
2023-04-24T19:26:19.090Z,15.10
2023-04-24T19:28:48.114Z,13.30
2023-04-24T19:31:17.925Z,12.70
2023-04-24T19:33:48.268Z,12.57
2023-04-24T19:36:17.634Z,18.43
2023-04-24T19:38:45.192Z,17.10
2023-04-24T19:41:12.602Z,12.27
2023-04-24T19:43:39.956Z,10.43
2023-04-24T19:46:06.589Z,15.13
2023-04-24T19:48:33.281Z,15.60
2023-04-24T19:51:01.263Z,15.90
2023-04-24T19:53:28.276Z,16.90
2023-04-24T19:55:55.123Z,16.30
2023-04-24T19:58:21.690Z,18.30
2023-04-24T20:00:48.216Z,16.27
2023-04-24T20:03:25.538Z,16.57
2023-04-24T20:05:59.086Z,13.30
2023-04-24T20:08:25.699Z,14.77
2023-04-24T20:10:54.245Z,13.80
2023-04-24T20:13:20.660Z,17.37
2023-04-24T20:15:47.134Z,15.27
2023-04-24T20:18:13.650Z,14.67
2023-04-24T20:20:41.583Z,12.63
2023-04-24T20:23:10.313Z,16.40
2023-04-24T20:25:37.019Z,17.33
2023-04-24T20:28:03.559Z,19.73
2023-04-24T20:30:31.517Z,12.90
2023-04-24T20:32:58.664Z,14.03
2023-04-24T20:35:25.314Z,14.33
2023-04-24T20:37:53.818Z,16.20
2023-04-24T20:40:20.573Z,16.30
2023-04-24T20:42:47.053Z,15.30
2023-04-24T20:45:13.663Z,18.93
2023-04-24T20:47:40.158Z,16.00
2023-04-24T20:50:07.555Z,14.50
2023-04-24T20:52:34.161Z,13.67
2023-04-24T20:55:00.764Z,15.00
2023-04-24T20:57:27.423Z,18.90
2023-04-24T20:59:54.756Z,16.80
2023-04-24T21:02:21.286Z,16.17
2023-04-24T21:04:47.789Z,15.50
2023-04-24T21:07:15.226Z,20.20
2023-04-24T21:09:41.737Z,18.40
2023-04-24T21:12:08.181Z,17.07
2023-04-24T21:14:34.652Z,13.60
2023-04-24T21:17:01.852Z,16.30
2023-04-24T21:19:28.423Z,16.80
2023-04-24T21:21:54.884Z,16.23
2023-04-24T21:24:22.766Z,13.87
2023-04-24T21:26:49.617Z,21.50
2023-04-24T21:29:16.305Z,16.23
2023-04-24T21:31:42.797Z,17.40
2023-04-24T21:34:09.442Z,15.70
2023-04-24T21:36:35.998Z,16.20
2023-04-24T21:39:02.461Z,20.80
2023-04-24T21:41:28.935Z,17.10
2023-04-24T21:43:55.872Z,12.80
2023-04-24T21:46:22.768Z,15.63
2023-04-24T21:48:49.261Z,18.87
2023-04-24T21:51:16.572Z,22.13
2023-04-24T21:53:43.099Z,21.67
2023-04-24T21:56:09.646Z,17.63
2023-04-24T21:58:36.890Z,27.57
2023-04-24T22:01:03.542Z,16.37
2023-04-24T22:03:30.586Z,17.47
2023-04-24T22:05:57.094Z,19.30
2023-04-24T22:08:24.669Z,23.10
2023-04-24T22:10:53.097Z,19.10
2023-04-24T22:13:19.668Z,22.60
2023-04-24T22:15:46.177Z,18.47
2023-04-24T22:18:13.339Z,17.70
2023-04-24T22:20:39.937Z,21.60
2023-04-24T22:23:06.375Z,16.77
2023-04-24T22:25:32.952Z,20.40
2023-04-24T22:27:59.452Z,31.30
2023-04-24T22:30:26.012Z,27.07
2023-04-24T22:32:52.561Z,17.43
2023-04-24T22:35:20.309Z,19.23
2023-04-24T22:37:48.806Z,24.03
2023-04-24T22:40:15.792Z,26.00
2023-04-24T22:42:42.356Z,20.80
2023-04-24T22:45:11.569Z,23.03
2023-04-24T22:47:38.105Z,23.53
2023-04-24T22:50:05.992Z,23.90
2023-04-24T22:52:33.638Z,18.80
2023-04-24T22:55:00.915Z,22.83
2023-04-24T22:57:27.473Z,20.20
2023-04-24T22:59:54.250Z,20.77
2023-04-24T23:02:23.216Z,26.10
2023-04-24T23:04:49.824Z,23.50
2023-04-24T23:07:16.745Z,21.80
2023-04-24T23:09:43.171Z,24.07
2023-04-24T23:12:09.616Z,17.10
2023-04-24T23:14:36.449Z,31.60
2023-04-24T23:17:03.926Z,25.80
2023-04-24T23:19:30.524Z,24.20
2023-04-24T23:21:57.012Z,19.37
2023-04-24T23:24:23.606Z,23.40
2023-04-24T23:26:50.088Z,26.23
2023-04-24T23:29:16.553Z,19.53
2023-04-24T23:31:43.080Z,25.37
2023-04-24T23:34:09.512Z,22.63
2023-04-24T23:36:36.584Z,23.23
2023-04-24T23:39:05.209Z,27.20
2023-04-24T23:41:31.716Z,20.50
2023-04-24T23:43:58.222Z,23.87
2023-04-24T23:46:24.840Z,24.97
2023-04-24T23:48:51.353Z,22.30
2023-04-24T23:51:17.943Z,19.87
2023-04-24T23:53:44.602Z,17.00
2023-04-24T23:56:11.020Z,29.00
2023-04-24T23:58:37.475Z,18.50
